createdAt,value
2018-05-12T00:01:41.433Z,95.90
2018-05-12T00:04:10.759Z,96.30
2018-05-12T00:06:39.940Z,97.10
2018-05-12T00:09:09.345Z,97.50
2018-05-12T00:11:38.648Z,97.60
2018-05-12T00:14:07.832Z,97.90
2018-05-12T00:16:37.162Z,98.30
2018-05-12T00:19:06.331Z,98.60
2018-05-12T00:21:35.478Z,99.10
2018-05-12T00:24:04.869Z,99.30
2018-05-12T00:26:34.214Z,99.30
2018-05-12T00:29:03.507Z,99.60
2018-05-12T00:31:32.918Z,99.90
2018-05-12T00:34:02.281Z,99.90
2018-05-12T00:36:31.498Z,99.90
2018-05-12T00:39:00.921Z,99.90
2018-05-12T00:41:30.323Z,99.90
2018-05-12T00:43:59.671Z,99.90
2018-05-12T00:46:28.930Z,99.90
2018-05-12T00:48:58.973Z,99.90
2018-05-12T00:51:28.166Z,99.90
2018-05-12T00:53:57.343Z,99.90
2018-05-12T00:56:26.700Z,99.90
2018-05-12T00:58:55.880Z,99.90
2018-05-12T01:01:25.074Z,99.90
2018-05-12T01:03:54.383Z,99.90
2018-05-12T01:06:23.862Z,99.90
2018-05-12T01:08:53.167Z,99.90
2018-05-12T01:11:22.375Z,99.90
2018-05-12T01:13:51.507Z,99.90
2018-05-12T01:16:20.731Z,99.90
2018-05-12T01:18:49.868Z,99.90
2018-05-12T01:21:19.067Z,99.90
2018-05-12T01:23:48.240Z,99.90
2018-05-12T01:26:17.411Z,99.90
2018-05-12T01:28:46.558Z,99.90
2018-05-12T01:31:16.712Z,99.90
2018-05-12T01:33:46.020Z,99.90
2018-05-12T01:36:15.480Z,99.90
2018-05-12T01:38:44.891Z,99.90
2018-05-12T01:41:14.388Z,99.90
2018-05-12T01:43:43.576Z,99.90
2018-05-12T01:46:13.473Z,99.90
2018-05-12T01:48:42.841Z,99.90
2018-05-12T01:51:12.226Z,99.90
2018-05-12T01:53:41.408Z,99.90
2018-05-12T01:56:10.603Z,99.90
2018-05-12T01:58:39.915Z,99.90
2018-05-12T02:01:09.032Z,99.90
2018-05-12T02:03:38.545Z,99.90
2018-05-12T02:06:07.894Z,99.90
2018-05-12T02:08:37.060Z,99.90
2018-05-12T02:11:07.002Z,99.90
2018-05-12T02:13:36.192Z,99.90
2018-05-12T02:16:05.464Z,99.90
2018-05-12T02:18:34.769Z,99.90
2018-05-12T02:21:04.152Z,99.90
2018-05-12T02:23:33.466Z,99.90
2018-05-12T02:26:03.383Z,99.90
2018-05-12T02:28:32.720Z,99.90
2018-05-12T02:31:01.866Z,99.90
2018-05-12T02:33:31.084Z,99.90
2018-05-12T02:36:00.293Z,99.90
2018-05-12T02:38:29.523Z,99.90
2018-05-12T02:40:58.783Z,99.90
2018-05-12T02:43:28.237Z,99.90
2018-05-12T02:45:57.365Z,99.90
2018-05-12T02:48:26.713Z,99.90
2018-05-12T02:50:56.110Z,99.90
2018-05-12T02:53:26.060Z,99.90
2018-05-12T02:55:55.235Z,99.90
2018-05-12T02:58:24.736Z,99.90
2018-05-12T03:00:53.922Z,99.90
2018-05-12T03:03:23.209Z,99.90
2018-05-12T03:05:52.503Z,99.90
2018-05-12T03:08:21.826Z,99.90
2018-05-12T03:10:51.134Z,99.90
2018-05-12T03:13:20.311Z,99.90
2018-05-12T03:15:49.491Z,99.90
2018-05-12T03:18:21.024Z,99.90
2018-05-12T03:20:50.173Z,99.90
2018-05-12T03:23:19.340Z,99.90
2018-05-12T03:25:48.544Z,99.90
2018-05-12T03:28:17.816Z,99.90
2018-05-12T03:30:47.028Z,99.90
2018-05-12T03:33:17.092Z,99.90
2018-05-12T03:35:46.271Z,99.90
2018-05-12T03:38:15.599Z,99.90
2018-05-12T03:40:44.898Z,99.90
2018-05-12T03:43:14.157Z,99.90
2018-05-12T03:45:43.263Z,99.90
2018-05-12T03:48:18.127Z,99.90
2018-05-12T03:50:47.327Z,99.90
2018-05-12T03:53:16.727Z,99.90
2018-05-12T03:55:45.935Z,99.90
2018-05-12T03:58:15.076Z,99.90
2018-05-12T04:00:44.257Z,99.90
2018-05-12T04:03:14.207Z,99.90
2018-05-12T04:05:54.921Z,99.90
2018-05-12T04:08:36.938Z,99.90
2018-05-12T04:11:17.761Z,99.90
2018-05-12T04:13:47.099Z,99.90
2018-05-12T04:16:16.242Z,99.90
2018-05-12T04:18:45.550Z,99.90
2018-05-12T04:21:14.774Z,99.90
2018-05-12T04:23:44.159Z,99.90
2018-05-12T04:26:13.460Z,99.90
2018-05-12T04:28:42.824Z,99.90
2018-05-12T04:31:12.154Z,99.90
2018-05-12T04:33:42.097Z,99.90
2018-05-12T04:36:11.234Z,99.90
2018-05-12T04:38:40.516Z,99.90
2018-05-12T04:41:09.777Z,99.90
2018-05-12T04:43:38.963Z,99.90
2018-05-12T04:46:08.299Z,99.90
2018-05-12T04:48:37.471Z,99.90
2018-05-12T04:51:06.616Z,99.90
2018-05-12T04:53:36.069Z,99.90
2018-05-12T04:56:05.236Z,99.90
2018-05-12T04:58:34.590Z,99.90
2018-05-12T05:01:03.784Z,99.90
2018-05-12T05:03:33.284Z,98.90
2018-05-12T05:06:03.441Z,97.60
2018-05-12T05:08:32.913Z,96.50
2018-05-12T05:11:02.222Z,95.30
2018-05-12T05:13:31.693Z,94.20
2018-05-12T05:16:01.071Z,93.40
2018-05-12T05:18:30.244Z,93.10
2018-05-12T05:20:59.409Z,92.40
2018-05-12T05:26:09.383Z,90.40
2018-05-12T05:28:38.890Z,90.20
2018-05-12T05:31:08.432Z,90.20
2018-05-12T05:33:37.798Z,89.70
2018-05-12T05:36:08.816Z,88.70
2018-05-12T05:38:38.209Z,88.70
2018-05-12T05:41:07.494Z,89.30
2018-05-12T05:43:36.790Z,89.30
2018-05-12T05:46:06.037Z,89.80
2018-05-12T05:48:35.787Z,88.00
2018-05-12T05:51:05.106Z,88.00
2018-05-12T05:53:34.648Z,88.00
2018-05-12T05:56:04.175Z,88.20
2018-05-12T05:58:34.242Z,87.50
2018-05-12T06:01:03.601Z,87.50
2018-05-12T06:03:33.756Z,86.20
2018-05-12T06:06:04.307Z,85.90
2018-05-12T06:08:34.171Z,85.60
2018-05-12T06:11:03.597Z,86.00
2018-05-12T06:13:32.944Z,85.40
2018-05-12T06:16:02.375Z,85.40
2018-05-12T06:18:31.782Z,85.40
2018-05-12T06:21:01.522Z,84.40
2018-05-12T06:23:31.689Z,84.10
2018-05-12T06:26:02.043Z,83.60
2018-05-12T06:28:31.358Z,83.20
2018-05-12T06:31:01.483Z,82.60
2018-05-12T06:33:30.856Z,82.50
2018-05-12T06:36:00.942Z,82.40
2018-05-12T06:38:30.295Z,82.40
2018-05-12T06:41:00.427Z,82.00
2018-05-12T06:43:29.773Z,81.90
2018-05-12T06:45:59.966Z,81.70
2018-05-12T06:48:29.215Z,81.70
2018-05-12T06:50:58.545Z,81.50
2018-05-12T06:53:28.449Z,81.00
2018-05-12T06:55:57.792Z,80.80
2018-05-12T06:58:27.148Z,80.20
2018-05-12T07:00:56.725Z,79.60
2018-05-12T07:03:26.111Z,78.90
2018-05-12T07:05:55.377Z,78.40
2018-05-12T07:08:25.462Z,78.20
2018-05-12T07:10:55.151Z,78.20
2018-05-12T07:13:24.835Z,77.50
2018-05-12T07:15:54.139Z,77.60
2018-05-12T07:18:23.463Z,77.70
2018-05-12T07:20:53.574Z,76.90
2018-05-12T07:23:22.963Z,76.90
2018-05-12T07:25:52.255Z,76.50
2018-05-12T07:28:22.148Z,76.30
2018-05-12T07:30:52.217Z,76.20
2018-05-12T07:33:22.375Z,76.00
2018-05-12T07:35:51.671Z,76.00
2018-05-12T07:38:21.012Z,76.30
2018-05-12T07:40:52.394Z,75.20
2018-05-12T07:43:21.707Z,74.50
2018-05-12T07:45:51.018Z,74.70
2018-05-12T07:48:21.153Z,74.80
2018-05-12T07:50:50.530Z,74.10
2018-05-12T07:53:19.887Z,73.50
2018-05-12T07:55:49.233Z,73.30
2018-05-12T07:58:18.592Z,72.90
2018-05-12T08:00:47.943Z,72.60
2018-05-12T08:03:21.206Z,72.60
2018-05-12T08:05:51.285Z,72.50
2018-05-12T08:08:22.160Z,72.40
2018-05-12T08:10:52.427Z,71.70
2018-05-12T08:13:21.735Z,71.40
2018-05-12T08:15:51.078Z,71.00
2018-05-12T08:18:22.273Z,70.10
2018-05-12T08:20:54.438Z,69.30
2018-05-12T08:23:24.050Z,68.00
2018-05-12T08:25:55.300Z,67.70
2018-05-12T08:28:24.634Z,67.70
2018-05-12T08:30:54.803Z,66.70
2018-05-12T08:33:24.182Z,66.70
2018-05-12T08:35:53.473Z,66.60
2018-05-12T08:38:23.557Z,65.80
2018-05-12T08:40:54.013Z,65.40
2018-05-12T08:43:23.279Z,65.30
2018-05-12T08:45:53.725Z,64.40
2018-05-12T08:48:23.255Z,64.10
2018-05-12T08:50:52.637Z,63.50
2018-05-12T08:53:22.725Z,63.20
2018-05-12T08:55:52.262Z,63.10
2018-05-12T08:58:21.528Z,62.80
2018-05-12T09:00:50.906Z,63.10
2018-05-12T09:03:20.716Z,62.50
2018-05-12T09:05:51.614Z,61.40
2018-05-12T09:08:20.951Z,61.50
2018-05-12T09:10:50.521Z,61.30
2018-05-12T09:13:22.212Z,61.90
2018-05-12T09:15:51.458Z,61.20
2018-05-12T09:18:20.878Z,61.90
2018-05-12T09:20:50.154Z,61.30
2018-05-12T09:23:20.224Z,59.90
2018-05-12T09:25:49.489Z,59.90
2018-05-12T09:28:19.619Z,59.60
2018-05-12T09:30:48.926Z,59.60
2018-05-12T09:33:18.464Z,59.00
2018-05-12T09:35:47.867Z,59.50
2018-05-12T09:38:17.109Z,60.10
2018-05-12T09:40:46.463Z,59.30
2018-05-12T09:43:15.873Z,59.10
2018-05-12T09:45:45.213Z,58.30
2018-05-12T09:48:23.564Z,58.00
2018-05-12T09:50:52.874Z,58.00
2018-05-12T09:53:22.224Z,57.40
2018-05-12T09:55:51.553Z,57.00
2018-05-12T09:58:21.319Z,56.70
2018-05-12T10:04:22.881Z,55.40
2018-05-12T10:06:52.752Z,52.90
2018-05-12T10:09:21.976Z,52.90
2018-05-12T10:11:51.170Z,51.50
2018-05-12T10:14:26.066Z,51.60
2018-05-12T10:16:55.397Z,52.00
2018-05-12T10:22:36.291Z,51.90
2018-05-12T10:25:05.604Z,51.10
2018-05-12T10:27:34.809Z,51.30
2018-05-12T10:32:59.592Z,49.50
2018-05-12T10:35:31.982Z,49.50
2018-05-12T10:38:01.176Z,49.40
2018-05-12T10:40:51.602Z,48.60
2018-05-12T10:43:20.958Z,49.40
2018-05-12T10:45:50.155Z,48.70
2018-05-12T10:48:19.369Z,47.00
2018-05-12T10:50:48.547Z,46.60
2018-05-12T10:53:17.854Z,45.70
2018-05-12T10:55:47.089Z,44.80
2018-05-12T10:58:16.243Z,44.40
2018-05-12T11:00:45.447Z,42.70
2018-05-12T11:03:14.829Z,42.70
2018-05-12T11:05:52.513Z,42.20
2018-05-12T11:08:21.732Z,40.90
2018-05-12T11:10:54.619Z,40.40
2018-05-12T11:13:23.836Z,39.00
2018-05-12T11:15:53.199Z,39.90
2018-05-12T11:18:22.333Z,39.20
2018-05-12T11:20:51.521Z,39.80
2018-05-12T11:23:20.643Z,39.70
2018-05-12T11:25:49.762Z,39.90
2018-05-12T11:28:19.011Z,40.10
2018-05-12T11:30:55.991Z,40.20
2018-05-12T11:33:25.296Z,40.90
2018-05-12T11:35:54.518Z,41.30
2018-05-12T11:38:27.387Z,41.30
2018-05-12T11:40:56.543Z,42.40
2018-05-12T11:43:26.601Z,42.10
2018-05-12T11:49:08.697Z,44.00
2018-05-12T11:51:37.869Z,44.00
2018-05-12T11:54:06.883Z,44.30
2018-05-12T11:56:36.200Z,44.90
2018-05-12T11:59:05.353Z,44.80
2018-05-12T12:01:39.245Z,43.40
2018-05-12T12:04:08.607Z,43.40
2018-05-12T12:06:37.842Z,43.30
2018-05-12T12:09:07.123Z,42.40
2018-05-12T12:11:36.492Z,42.10
2018-05-12T12:14:05.812Z,39.60
2018-05-12T12:16:35.099Z,40.00
2018-05-12T12:19:18.037Z,39.90
2018-05-12T12:21:47.204Z,41.00
2018-05-12T12:24:16.480Z,41.00
2018-05-12T12:26:46.547Z,40.50
2018-05-12T12:29:15.835Z,40.10
2018-05-12T12:31:45.045Z,39.80
2018-05-12T12:34:14.283Z,40.00
2018-05-12T12:36:44.275Z,40.80
2018-05-12T12:39:13.660Z,40.80
2018-05-12T12:41:44.025Z,40.40
2018-05-12T12:44:13.175Z,40.80
2018-05-12T12:46:42.320Z,39.80
2018-05-12T12:49:11.579Z,40.30
2018-05-12T12:51:40.879Z,40.10
2018-05-12T12:54:10.036Z,38.80
2018-05-12T12:56:39.254Z,37.50
2018-05-12T12:59:08.503Z,38.10
2018-05-12T13:01:37.751Z,38.70
2018-05-12T13:04:07.067Z,39.70
2018-05-12T13:06:36.204Z,40.00
2018-05-12T13:09:05.468Z,38.90
2018-05-12T13:11:34.587Z,39.00
2018-05-12T13:14:04.677Z,39.30
2018-05-12T13:16:33.871Z,39.10
2018-05-12T13:19:03.008Z,38.10
2018-05-12T13:21:32.202Z,37.00
2018-05-12T13:24:01.583Z,36.50
2018-05-12T13:26:30.866Z,35.90
2018-05-12T13:28:59.902Z,36.40
2018-05-12T13:31:29.107Z,35.90
2018-05-12T13:33:59.073Z,37.10
2018-05-12T13:36:28.381Z,37.10
2018-05-12T13:38:57.684Z,37.00
2018-05-12T13:41:26.840Z,37.90
2018-05-12T13:43:56.739Z,37.50
2018-05-12T13:46:25.996Z,37.50
2018-05-12T13:48:55.280Z,37.80
2018-05-12T13:51:24.472Z,37.80
2018-05-12T13:53:53.866Z,36.80
2018-05-12T13:56:23.022Z,37.20
2018-05-12T13:58:52.143Z,37.00
2018-05-12T14:01:21.445Z,37.90
2018-05-12T14:03:51.383Z,37.10
2018-05-12T14:06:26.767Z,37.10
2018-05-12T14:08:55.997Z,36.70
2018-05-12T14:11:26.190Z,36.30
2018-05-12T14:13:55.333Z,36.30
2018-05-12T14:16:25.380Z,37.00
2018-05-12T14:18:54.584Z,37.00
2018-05-12T14:21:23.813Z,34.70
2018-05-12T14:23:53.793Z,33.40
2018-05-12T14:26:23.107Z,33.40
2018-05-12T14:28:52.392Z,32.60
2018-05-12T14:31:21.634Z,32.60
2018-05-12T14:33:50.795Z,33.60
2018-05-12T14:36:19.984Z,33.70
2018-05-12T14:38:49.114Z,34.10
2018-05-12T14:41:18.383Z,33.30
2018-05-12T14:43:47.678Z,31.10
2018-05-12T14:46:16.932Z,33.00
2018-05-12T14:48:46.252Z,33.90
2018-05-12T14:51:15.403Z,33.70
2018-05-12T14:53:44.782Z,34.10
2018-05-12T14:56:13.933Z,33.80
2018-05-12T14:58:43.914Z,35.00
2018-05-12T15:01:13.293Z,35.00
2018-05-12T15:03:42.737Z,34.30
2018-05-12T15:06:12.059Z,34.20
2018-05-12T15:08:41.400Z,33.70
2018-05-12T15:11:10.500Z,33.10
2018-05-12T15:13:39.798Z,33.00
2018-05-12T15:16:09.105Z,32.10
2018-05-12T15:18:38.262Z,32.10
2018-05-12T15:21:13.853Z,33.80
2018-05-12T15:23:43.049Z,33.80
2018-05-12T15:26:12.422Z,32.90
2018-05-12T15:28:42.544Z,32.00
2018-05-12T15:31:11.702Z,32.00
2018-05-12T15:33:41.707Z,33.50
2018-05-12T15:36:10.760Z,33.50
2018-05-12T15:38:40.091Z,33.50
2018-05-12T15:41:09.770Z,33.10
2018-05-12T15:43:38.981Z,33.20
2018-05-12T15:46:08.549Z,32.90
2018-05-12T15:48:37.723Z,33.20
2018-05-12T15:51:07.870Z,33.40
2018-05-12T15:53:37.803Z,33.10
2018-05-12T15:56:21.250Z,33.10
2018-05-12T15:58:50.482Z,33.50
2018-05-12T16:01:19.629Z,32.90
2018-05-12T16:03:48.768Z,32.40
2018-05-12T16:06:18.180Z,32.40
2018-05-12T16:08:48.149Z,33.00
2018-05-12T16:11:17.561Z,33.60
2018-05-12T16:14:04.368Z,34.60
2018-05-12T16:16:33.772Z,34.70
2018-05-12T16:19:03.180Z,34.70
2018-05-12T16:21:32.369Z,34.70
2018-05-12T16:24:01.507Z,35.70
2018-05-12T16:26:30.651Z,36.90
2018-05-12T16:29:00.581Z,38.00
2018-05-12T16:31:30.044Z,38.40
2018-05-12T16:33:59.127Z,39.50
2018-05-12T16:36:31.553Z,39.70
2018-05-12T16:39:00.813Z,39.70
2018-05-12T16:41:31.282Z,40.30
2018-05-12T16:44:00.436Z,40.60
2018-05-12T16:46:30.287Z,42.70
2018-05-12T16:48:59.485Z,45.70
2018-05-12T16:51:28.791Z,48.50
2018-05-12T16:54:17.856Z,50.30
2018-05-12T16:56:47.109Z,52.00
2018-05-12T16:59:17.601Z,52.50
2018-05-12T17:01:47.552Z,53.00
2018-05-12T17:04:16.814Z,53.00
2018-05-12T17:06:46.421Z,52.80
2018-05-12T17:09:39.304Z,51.90
2018-05-12T17:12:08.735Z,51.90
2018-05-12T17:14:38.262Z,51.30
2018-05-12T17:17:07.665Z,51.10
2018-05-12T17:19:36.853Z,51.40
2018-05-12T17:22:05.983Z,51.80
2018-05-12T17:24:36.388Z,51.40
2018-05-12T17:27:05.580Z,51.40
2018-05-12T17:29:34.885Z,50.70
2018-05-12T17:32:05.156Z,50.30
2018-05-12T17:34:34.448Z,50.30
2018-05-12T17:37:03.695Z,50.70
2018-05-12T17:39:33.007Z,51.20
2018-05-12T17:42:02.204Z,51.40
2018-05-12T17:44:31.391Z,51.90
2018-05-12T17:47:00.567Z,52.20
2018-05-12T17:49:30.026Z,52.60
2018-05-12T17:51:59.256Z,53.20
2018-05-12T17:54:29.325Z,54.20
2018-05-12T17:56:59.434Z,54.50
2018-05-12T17:59:28.618Z,54.50
2018-05-12T18:01:57.825Z,55.10
2018-05-12T18:04:28.057Z,56.30
2018-05-12T18:06:57.195Z,56.30
2018-05-12T18:09:26.187Z,56.80
2018-05-12T18:11:55.515Z,57.10
2018-05-12T18:14:24.752Z,56.70
2018-05-12T18:16:54.026Z,57.00
2018-05-12T18:19:24.020Z,57.90
2018-05-12T18:21:53.556Z,58.00
2018-05-12T18:24:22.709Z,58.40
2018-05-12T18:26:51.812Z,58.80
2018-05-12T18:29:21.268Z,58.70
2018-05-12T18:31:50.611Z,58.20
2018-05-12T18:34:26.965Z,58.50
2018-05-12T18:36:56.128Z,58.40
2018-05-12T18:39:25.261Z,58.70
2018-05-12T18:41:54.446Z,59.20
2018-05-12T18:44:23.633Z,59.50
2018-05-12T18:46:52.859Z,59.80
2018-05-12T18:49:22.038Z,59.50
2018-05-12T18:51:51.624Z,59.60
2018-05-12T18:54:21.032Z,59.80
2018-05-12T18:56:50.431Z,60.20
2018-05-12T18:59:19.603Z,60.20
2018-05-12T19:01:49.119Z,60.40
2018-05-12T19:04:18.112Z,60.50
2018-05-12T19:06:47.852Z,60.70
2018-05-12T19:09:17.336Z,60.80
2018-05-12T19:11:46.525Z,60.80
2018-05-12T19:14:15.860Z,61.00
2018-05-12T19:16:45.135Z,61.20
2018-05-12T19:19:14.423Z,62.60
2018-05-12T19:21:43.385Z,63.60
2018-05-12T19:24:12.388Z,63.60
2018-05-12T19:26:41.713Z,63.50
2018-05-12T19:29:11.024Z,64.00
2018-05-12T19:31:39.995Z,64.00
2018-05-12T19:34:12.224Z,64.60
2018-05-12T19:36:41.207Z,64.50
2018-05-12T19:39:10.146Z,65.00
2018-05-12T19:41:39.263Z,65.10
2018-05-12T19:44:08.380Z,65.40
2018-05-12T19:46:37.533Z,65.80
2018-05-12T19:49:06.872Z,65.90
2018-05-12T19:51:36.268Z,66.20
2018-05-12T19:54:05.472Z,66.40
2018-05-12T19:56:34.592Z,66.50
2018-05-12T19:59:03.855Z,66.50
2018-05-12T20:01:32.976Z,67.10
2018-05-12T20:04:12.792Z,67.20
2018-05-12T20:06:53.175Z,67.70
2018-05-12T20:12:21.754Z,68.00
2018-05-12T20:14:51.088Z,68.80
2018-05-12T20:17:20.076Z,69.00
2018-05-12T20:19:49.249Z,69.20
2018-05-12T20:22:18.555Z,69.50
2018-05-12T20:24:47.688Z,69.70
2018-05-12T20:27:16.778Z,70.30
2018-05-12T20:29:45.940Z,71.10
2018-05-12T20:32:14.935Z,71.90
2018-05-12T20:34:44.123Z,72.50
2018-05-12T20:37:13.348Z,72.70
2018-05-12T20:39:42.523Z,73.00
2018-05-12T20:42:28.304Z,72.80
2018-05-12T20:44:57.538Z,72.80
2018-05-12T20:47:26.693Z,72.80
2018-05-12T20:49:55.847Z,72.80
2018-05-12T20:52:25.806Z,73.00
2018-05-12T20:54:55.718Z,73.00
2018-05-12T20:57:24.995Z,73.10
2018-05-12T20:59:54.125Z,73.40
2018-05-12T21:02:27.803Z,73.60
2018-05-12T21:04:56.987Z,73.90
2018-05-12T21:07:29.993Z,74.70
2018-05-12T21:09:59.155Z,74.20
2018-05-12T21:12:28.296Z,74.60
2018-05-12T21:14:57.446Z,74.70
2018-05-12T21:17:26.616Z,75.30
2018-05-12T21:19:55.580Z,75.40
2018-05-12T21:22:24.816Z,76.20
2018-05-12T21:24:57.056Z,76.50
2018-05-12T21:27:26.256Z,77.20
2018-05-12T21:29:55.428Z,77.50
2018-05-12T21:32:25.358Z,78.60
2018-05-12T21:34:55.295Z,79.00
2018-05-12T21:37:24.449Z,79.10
2018-05-12T21:39:54.362Z,79.40
2018-05-12T21:42:23.591Z,79.50
2018-05-12T21:44:52.803Z,79.70
2018-05-12T21:47:21.954Z,79.70
2018-05-12T21:49:51.221Z,79.80
2018-05-12T21:52:20.394Z,80.20
2018-05-12T21:54:49.536Z,80.30
2018-05-12T21:57:18.507Z,80.50
2018-05-12T21:59:49.653Z,80.40
2018-05-12T22:02:18.789Z,80.70
2018-05-12T22:04:48.752Z,80.20
2018-05-12T22:07:17.995Z,80.10
2018-05-12T22:09:47.100Z,80.10
2018-05-12T22:12:17.020Z,80.00
2018-05-12T22:14:46.951Z,79.80
2018-05-12T22:17:16.214Z,79.90
2018-05-12T22:19:46.167Z,79.70
2018-05-12T22:22:15.329Z,79.60
2018-05-12T22:24:44.523Z,79.60
2018-05-12T22:27:14.512Z,79.70
2018-05-12T22:29:43.693Z,79.80
2018-05-12T22:32:12.867Z,79.70
2018-05-12T22:34:41.872Z,80.00
2018-05-12T22:37:10.851Z,80.40
2018-05-12T22:39:40.074Z,80.60
2018-05-12T22:42:09.034Z,81.50
2018-05-12T22:44:38.207Z,81.90
2018-05-12T22:47:08.138Z,82.70
2018-05-12T22:49:37.367Z,82.60
2018-05-12T22:52:06.560Z,83.10
2018-05-12T22:54:35.703Z,83.40
2018-05-12T22:57:05.715Z,84.70
2018-05-12T22:59:34.908Z,84.70
2018-05-12T23:02:04.867Z,85.70
2018-05-12T23:04:34.783Z,85.80
2018-05-12T23:07:04.672Z,85.80
2018-05-12T23:09:34.631Z,86.30
2018-05-12T23:12:03.792Z,86.30
2018-05-12T23:14:33.741Z,86.50
2018-05-12T23:17:02.976Z,86.60
2018-05-12T23:19:32.143Z,87.20
2018-05-12T23:22:01.306Z,87.60
2018-05-12T23:24:31.228Z,88.00
2018-05-12T23:27:01.205Z,87.40
2018-05-12T23:29:30.368Z,87.40
2018-05-12T23:31:59.563Z,86.80
2018-05-12T23:34:28.774Z,86.20
2018-05-12T23:36:57.928Z,86.00
2018-05-12T23:39:27.884Z,86.30
2018-05-12T23:42:02.751Z,86.40
2018-05-12T23:44:31.912Z,86.60
2018-05-12T23:47:01.056Z,86.80
2018-05-12T23:49:30.291Z,87.20
2018-05-12T23:51:59.459Z,87.90
2018-05-12T23:54:28.671Z,88.60
2018-05-12T23:56:57.888Z,89.40
2018-05-12T23:59:27.135Z,90.20
